sensor_id;sensor_type;location;lat;lon;timestamp;pressure;altitude;pressure_sealevel;temperature;humidity
21863;BME280;11096;51.338;12.524;2023-02-28T00:00:48;101538.13;;;0.65;72.75
21863;BME280;11096;51.338;12.524;2023-02-28T00:03:14;101539.00;;;0.64;72.70
21863;BME280;11096;51.338;12.524;2023-02-28T00:05:39;101530.47;;;0.60;72.38
21863;BME280;11096;51.338;12.524;2023-02-28T00:08:07;101532.19;;;0.58;73.13
21863;BME280;11096;51.338;12.524;2023-02-28T00:10:33;101538.16;;;0.57;73.13
21863;BME280;11096;51.338;12.524;2023-02-28T00:13:06;101534.69;;;0.66;73.03
21863;BME280;11096;51.338;12.524;2023-02-28T00:15:32;101527.91;;;0.62;73.04
21863;BME280;11096;51.338;12.524;2023-02-28T00:17:58;101528.75;;;0.62;73.13
21863;BME280;11096;51.338;12.524;2023-02-28T00:20:24;101535.59;;;0.60;73.35
21863;BME280;11096;51.338;12.524;2023-02-28T00:22:51;101530.44;;;0.67;73.33
21863;BME280;11096;51.338;12.524;2023-02-28T00:25:19;101527.88;;;0.65;73.84
21863;BME280;11096;51.338;12.524;2023-02-28T00:27:46;101531.31;;;0.64;73.97
21863;BME280;11096;51.338;12.524;2023-02-28T00:30:14;101528.75;;;0.64;73.77
21863;BME280;11096;51.338;12.524;2023-02-28T00:32:40;101522.78;;;0.62;73.90
21863;BME280;11096;51.338;12.524;2023-02-28T00:35:07;101521.94;;;0.64;73.85
21863;BME280;11096;51.338;12.524;2023-02-28T00:37:33;101521.06;;;0.62;73.55
21863;BME280;11096;51.338;12.524;2023-02-28T00:39:59;101523.63;;;0.62;73.75
21863;BME280;11096;51.338;12.524;2023-02-28T00:42:24;101525.31;;;0.63;73.81
21863;BME280;11096;51.338;12.524;2023-02-28T00:44:50;101531.28;;;0.66;74.19
21863;BME280;11096;51.338;12.524;2023-02-28T00:47:16;101528.72;;;0.66;73.92
21863;BME280;11096;51.338;12.524;2023-02-28T00:49:41;101528.69;;;0.69;73.73
21863;BME280;11096;51.338;12.524;2023-02-28T00:52:07;101525.31;;;0.67;73.55
21863;BME280;11096;51.338;12.524;2023-02-28T00:54:32;101527.88;;;0.70;73.67
21863;BME280;11096;51.338;12.524;2023-02-28T00:56:59;101517.59;;;0.71;73.50
21863;BME280;11096;51.338;12.524;2023-02-28T00:59:24;101521.03;;;0.70;73.69
21863;BME280;11096;51.338;12.524;2023-02-28T01:01:50;101523.59;;;0.72;73.68
21863;BME280;11096;51.338;12.524;2023-02-28T01:04:15;101516.75;;;0.72;73.85
21863;BME280;11096;51.338;12.524;2023-02-28T01:06:41;101518.47;;;0.70;73.86
21863;BME280;11096;51.338;12.524;2023-02-28T01:09:07;101521.91;;;0.68;73.96
21863;BME280;11096;51.338;12.524;2023-02-28T01:11:34;101521.03;;;0.69;74.15
21863;BME280;11096;51.338;12.524;2023-02-28T01:14:00;101520.22;;;0.63;74.07
21863;BME280;11096;51.338;12.524;2023-02-28T01:16:26;101521.91;;;0.61;74.34
21863;BME280;11096;51.338;12.524;2023-02-28T01:18:52;101518.53;;;0.56;74.04
21863;BME280;11096;51.338;12.524;2023-02-28T01:21:20;101519.41;;;0.57;74.08
21863;BME280;11096;51.338;12.524;2023-02-28T01:23:47;101520.22;;;0.59;74.21
21863;BME280;11096;51.338;12.524;2023-02-28T01:26:18;101516.81;;;0.58;74.56
21863;BME280;11096;51.338;12.524;2023-02-28T01:28:44;101518.56;;;0.53;74.97
21863;BME280;11096;51.338;12.524;2023-02-28T01:31:11;101526.22;;;0.53;74.89
21863;BME280;11096;51.338;12.524;2023-02-28T01:33:37;101511.75;;;0.57;74.97
21863;BME280;11096;51.338;12.524;2023-02-28T01:36:14;101519.41;;;0.55;74.66
21863;BME280;11096;51.338;12.524;2023-02-28T01:38:40;101517.72;;;0.54;74.68
21863;BME280;11096;51.338;12.524;2023-02-28T01:41:06;101517.69;;;0.57;74.72
21863;BME280;11096;51.338;12.524;2023-02-28T01:43:56;101518.53;;;0.62;74.66
21863;BME280;11096;51.338;12.524;2023-02-28T01:46:23;101520.28;;;0.51;74.86
21863;BME280;11096;51.338;12.524;2023-02-28T01:48:57;101511.75;;;0.51;75.07
21863;BME280;11096;51.338;12.524;2023-02-28T01:51:46;101508.34;;;0.50;75.01
21863;BME280;11096;51.338;12.524;2023-02-28T01:54:33;101511.75;;;0.49;75.13
21863;BME280;11096;51.338;12.524;2023-02-28T01:57:12;101500.69;;;0.46;75.12
21863;BME280;11096;51.338;12.524;2023-02-28T01:59:54;101497.31;;;0.43;75.07
21863;BME280;11096;51.338;12.524;2023-02-28T02:02:22;101495.63;;;0.42;74.75
21863;BME280;11096;51.338;12.524;2023-02-28T02:04:55;101499.00;;;0.43;74.69
21863;BME280;11096;51.338;12.524;2023-02-28T02:07:23;101496.44;;;0.46;74.43
21863;BME280;11096;51.338;12.524;2023-02-28T02:10:04;101489.59;;;0.48;74.52
21863;BME280;11096;51.338;12.524;2023-02-28T02:17:56;101491.34;;;0.45;74.55
21863;BME280;11096;51.338;12.524;2023-02-28T02:28:52;101484.69;;;0.07;75.81
21863;BME280;11096;51.338;12.524;2023-02-28T02:31:58;101493.25;;;-0.02;76.43
21863;BME280;11096;51.338;12.524;2023-02-28T02:34:56;101488.19;;;-0.10;76.48
21863;BME280;11096;51.338;12.524;2023-02-28T02:37:29;101491.59;;;-0.18;76.69
21863;BME280;11096;51.338;12.524;2023-02-28T02:45:46;101484.81;;;-0.19;77.41
21863;BME280;11096;51.338;12.524;2023-02-28T02:48:16;101487.38;;;-0.24;77.43
21863;BME280;11096;51.338;12.524;2023-02-28T02:50:46;101482.25;;;-0.29;77.19
21863;BME280;11096;51.338;12.524;2023-02-28T02:53:14;101500.16;;;-0.29;77.51
21863;BME280;11096;51.338;12.524;2023-02-28T02:55:46;101496.75;;;-0.31;77.20
21863;BME280;11096;51.338;12.524;2023-02-28T02:58:22;101495.06;;;-0.32;77.49
21863;BME280;11096;51.338;12.524;2023-02-28T03:00:55;101495.03;;;-0.33;77.42
21863;BME280;11096;51.338;12.524;2023-02-28T03:03:23;101489.94;;;-0.35;77.16
21863;BME280;11096;51.338;12.524;2023-02-28T03:05:55;101495.91;;;-0.36;77.21
21863;BME280;11096;51.338;12.524;2023-02-28T03:08:21;101490.78;;;-0.33;77.24
21863;BME280;11096;51.338;12.524;2023-02-28T03:10:52;101489.94;;;-0.35;77.29
21863;BME280;11096;51.338;12.524;2023-02-28T03:21:20;101496.78;;;-0.49;77.48
21863;BME280;11096;51.338;12.524;2023-02-28T03:26:21;101500.19;;;-0.46;77.24
21863;BME280;11096;51.338;12.524;2023-02-28T03:29:09;101498.47;;;-0.45;77.07
21863;BME280;11096;51.338;12.524;2023-02-28T03:31:49;101500.16;;;-0.36;76.76
21863;BME280;11096;51.338;12.524;2023-02-28T03:34:24;101505.28;;;-0.41;76.44
21863;BME280;11096;51.338;12.524;2023-02-28T03:36:53;101503.56;;;-0.45;76.74
21863;BME280;11096;51.338;12.524;2023-02-28T03:39:25;101504.41;;;-0.38;77.06
21863;BME280;11096;51.338;12.524;2023-02-28T03:41:57;101499.31;;;-0.35;76.99
21863;BME280;11096;51.338;12.524;2023-02-28T03:44:30;101501.84;;;-0.28;77.09
21863;BME280;11096;51.338;12.524;2023-02-28T03:47:03;101499.28;;;-0.22;77.42
21863;BME280;11096;51.338;12.524;2023-02-28T03:49:37;101501.81;;;-0.12;77.40
21863;BME280;11096;51.338;12.524;2023-02-28T03:52:07;101503.47;;;-0.08;77.50
21863;BME280;11096;51.338;12.524;2023-02-28T03:54:37;101500.06;;;-0.03;77.21
21863;BME280;11096;51.338;12.524;2023-02-28T03:59:42;101502.59;;;0.04;76.85
21863;BME280;11096;51.338;12.524;2023-02-28T04:02:09;101501.75;;;0.03;76.73
21863;BME280;11096;51.338;12.524;2023-02-28T04:04:35;101503.44;;;0.07;76.60
21863;BME280;11096;51.338;12.524;2023-02-28T04:07:04;101505.13;;;0.11;76.94
21863;BME280;11096;51.338;12.524;2023-02-28T04:09:30;101508.56;;;0.10;76.61
21863;BME280;11096;51.338;12.524;2023-02-28T04:11:55;101505.97;;;0.09;76.35
21863;BME280;11096;51.338;12.524;2023-02-28T04:14:21;101511.09;;;0.09;76.52
21863;BME280;11096;51.338;12.524;2023-02-28T04:16:47;101511.97;;;0.08;76.80
21863;BME280;11096;51.338;12.524;2023-02-28T04:19:13;101507.72;;;0.04;76.92
21863;BME280;11096;51.338;12.524;2023-02-28T04:21:42;101510.25;;;0.08;76.91
21863;BME280;11096;51.338;12.524;2023-02-28T04:24:11;101511.97;;;0.06;76.84
21863;BME280;11096;51.338;12.524;2023-02-28T04:26:40;101509.41;;;0.02;76.71
21863;BME280;11096;51.338;12.524;2023-02-28T04:29:06;101507.72;;;0.01;76.62
21863;BME280;11096;51.338;12.524;2023-02-28T04:31:33;101517.94;;;0.02;76.72
21863;BME280;11096;51.338;12.524;2023-02-28T04:33:59;101516.22;;;0.04;76.66
21863;BME280;11096;51.338;12.524;2023-02-28T04:36:25;101517.09;;;0.00;76.49
21863;BME280;11096;51.338;12.524;2023-02-28T04:38:51;101521.34;;;0.03;76.45
21863;BME280;11096;51.338;12.524;2023-02-28T04:41:17;101517.94;;;0.04;76.27
21863;BME280;11096;51.338;12.524;2023-02-28T04:43:42;101510.22;;;0.10;75.94
21863;BME280;11096;51.338;12.524;2023-02-28T04:46:08;101512.78;;;0.14;75.85
21863;BME280;11096;51.338;12.524;2023-02-28T04:48:36;101517.03;;;0.12;75.79
21863;BME280;11096;51.338;12.524;2023-02-28T04:51:04;101519.59;;;0.14;75.61
21863;BME280;11096;51.338;12.524;2023-02-28T04:53:30;101520.44;;;0.10;75.73
21863;BME280;11096;51.338;12.524;2023-02-28T04:55:57;101518.78;;;0.10;75.58
21863;BME280;11096;51.338;12.524;2023-02-28T04:58:23;101521.31;;;0.07;75.83
21863;BME280;11096;51.338;12.524;2023-02-28T05:00:52;101521.31;;;0.07;75.54
21863;BME280;11096;51.338;12.524;2023-02-28T05:03:18;101513.66;;;0.06;75.38
21863;BME280;11096;51.338;12.524;2023-02-28T05:05:46;101517.06;;;0.06;75.53
21863;BME280;11096;51.338;12.524;2023-02-28T05:08:11;101517.94;;;0.05;74.91
21863;BME280;11096;51.338;12.524;2023-02-28T05:10:37;101518.78;;;0.04;75.10
21863;BME280;11096;51.338;12.524;2023-02-28T05:13:02;101516.22;;;0.04;74.80
21863;BME280;11096;51.338;12.524;2023-02-28T05:15:28;101528.13;;;0.07;74.53
21863;BME280;11096;51.338;12.524;2023-02-28T05:17:53;101523.88;;;0.04;74.52
21863;BME280;11096;51.338;12.524;2023-02-28T05:20:19;101524.75;;;0.02;74.89
21863;BME280;11096;51.338;12.524;2023-02-28T05:22:46;101526.47;;;-0.01;75.12
21863;BME280;11096;51.338;12.524;2023-02-28T05:25:17;101525.63;;;-0.04;74.83
21863;BME280;11096;51.338;12.524;2023-02-28T05:27:43;101526.50;;;-0.10;74.95
21863;BME280;11096;51.338;12.524;2023-02-28T05:30:09;101528.22;;;-0.12;74.74
21863;BME280;11096;51.338;12.524;2023-02-28T05:32:38;101526.50;;;-0.14;74.64
21863;BME280;11096;51.338;12.524;2023-02-28T05:35:09;101520.53;;;-0.18;74.34
21863;BME280;11096;51.338;12.524;2023-02-28T05:37:35;101523.97;;;-0.20;74.14
21863;BME280;11096;51.338;12.524;2023-02-28T05:40:00;101528.25;;;-0.29;73.99
21863;BME280;11096;51.338;12.524;2023-02-28T05:42:26;101534.22;;;-0.36;74.06
21863;BME280;11096;51.338;12.524;2023-02-28T05:44:51;101530.81;;;-0.47;74.57
21863;BME280;11096;51.338;12.524;2023-02-28T05:47:17;101540.19;;;-0.52;75.35
21863;BME280;11096;51.338;12.524;2023-02-28T05:49:42;101545.28;;;-0.60;75.06
21863;BME280;11096;51.338;12.524;2023-02-28T05:52:08;101542.75;;;-0.69;75.26
21863;BME280;11096;51.338;12.524;2023-02-28T05:54:33;101535.94;;;-0.75;75.37
21863;BME280;11096;51.338;12.524;2023-02-28T05:56:59;101548.69;;;-0.84;75.67
21863;BME280;11096;51.338;12.524;2023-02-28T05:59:24;101557.19;;;-0.94;75.99
21863;BME280;11096;51.338;12.524;2023-02-28T06:01:50;101558.91;;;-1.01;76.17
21863;BME280;11096;51.338;12.524;2023-02-28T06:04:18;101561.44;;;-1.07;76.57
21863;BME280;11096;51.338;12.524;2023-02-28T06:06:48;101561.41;;;-1.09;76.36
21863;BME280;11096;51.338;12.524;2023-02-28T06:09:14;101569.94;;;-1.13;76.67
21863;BME280;11096;51.338;12.524;2023-02-28T06:11:41;101563.97;;;-1.18;77.28
21863;BME280;11096;51.338;12.524;2023-02-28T06:14:07;101567.38;;;-1.20;76.65
21863;BME280;11096;51.338;12.524;2023-02-28T06:16:34;101572.47;;;-1.20;77.08
21863;BME280;11096;51.338;12.524;2023-02-28T06:19:01;101575.00;;;-1.19;77.44
21863;BME280;11096;51.338;12.524;2023-02-28T06:21:28;101575.00;;;-1.16;77.67
21863;BME280;11096;51.338;12.524;2023-02-28T06:23:53;101580.97;;;-1.14;77.37
21863;BME280;11096;51.338;12.524;2023-02-28T06:26:19;101578.44;;;-1.15;77.07
21863;BME280;11096;51.338;12.524;2023-02-28T06:28:45;101585.25;;;-1.10;77.31
21863;BME280;11096;51.338;12.524;2023-02-28T06:31:13;101589.50;;;-1.07;77.31
21863;BME280;11096;51.338;12.524;2023-02-28T06:33:40;101593.75;;;-1.01;77.21
21863;BME280;11096;51.338;12.524;2023-02-28T06:36:07;101599.72;;;-0.99;77.00
21863;BME280;11096;51.338;12.524;2023-02-28T06:38:34;101597.19;;;-0.95;76.76
21863;BME280;11096;51.338;12.524;2023-02-28T06:41:00;101598.88;;;-0.89;76.72
21863;BME280;11096;51.338;12.524;2023-02-28T06:43:28;101595.47;;;-0.79;76.43
21863;BME280;11096;51.338;12.524;2023-02-28T06:45:55;101599.78;;;-0.69;76.33
21863;BME280;11096;51.338;12.524;2023-02-28T06:48:21;101598.06;;;-0.57;75.78
21863;BME280;11096;51.338;12.524;2023-02-28T06:50:46;101599.75;;;-0.47;75.55
21863;BME280;11096;51.338;12.524;2023-02-28T06:53:12;101604.03;;;-0.37;75.28
21863;BME280;11096;51.338;12.524;2023-02-28T06:55:39;101604.88;;;-0.24;75.27
21863;BME280;11096;51.338;12.524;2023-02-28T06:58:04;101611.69;;;-0.17;74.73
21863;BME280;11096;51.338;12.524;2023-02-28T07:00:43;101606.56;;;0.00;74.66
21863;BME280;11096;51.338;12.524;2023-02-28T07:03:09;101614.19;;;0.09;74.07
21863;BME280;11096;51.338;12.524;2023-02-28T07:05:35;101613.31;;;0.19;74.18
21863;BME280;11096;51.338;12.524;2023-02-28T07:08:03;101609.03;;;0.28;73.87
21863;BME280;11096;51.338;12.524;2023-02-28T07:10:29;101609.00;;;0.40;73.08
21863;BME280;11096;51.338;12.524;2023-02-28T07:12:55;101618.31;;;0.56;73.00
21863;BME280;11096;51.338;12.524;2023-02-28T07:15:20;101623.94;;;1.21;71.78
21863;BME280;11096;51.338;12.524;2023-02-28T07:17:46;101614.63;;;1.10;70.94
21863;BME280;11096;51.338;12.524;2023-02-28T07:20:11;101618.97;;;0.95;70.96
21863;BME280;11096;51.338;12.524;2023-02-28T07:22:37;101615.47;;;1.12;70.76
21863;BME280;11096;51.338;12.524;2023-02-28T07:25:04;101617.19;;;1.10;70.76
21863;BME280;11096;51.338;12.524;2023-02-28T07:27:30;101615.59;;;0.90;70.41
21863;BME280;11096;51.338;12.524;2023-02-28T07:29:55;101617.28;;;0.94;70.52
21863;BME280;11096;51.338;12.524;2023-02-28T07:32:21;101615.53;;;1.02;70.29
21863;BME280;11096;51.338;12.524;2023-02-28T07:34:46;101622.25;;;1.17;69.97
21863;BME280;11096;51.338;12.524;2023-02-28T07:37:12;101625.50;;;1.42;69.56
21863;BME280;11096;51.338;12.524;2023-02-28T07:39:37;101621.94;;;1.62;68.17
21863;BME280;11096;51.338;12.524;2023-02-28T07:42:06;101613.25;;;1.80;67.46
21863;BME280;11096;51.338;12.524;2023-02-28T07:44:35;101618.41;;;1.78;67.30
21863;BME280;11096;51.338;12.524;2023-02-28T07:47:08;101622.63;;;1.79;66.14
21863;BME280;11096;51.338;12.524;2023-02-28T07:49:37;101626.09;;;1.78;65.75
21863;BME280;11096;51.338;12.524;2023-02-28T07:52:04;101622.59;;;1.84;66.22
21863;BME280;11096;51.338;12.524;2023-02-28T07:54:30;101618.25;;;1.93;65.77
21863;BME280;11096;51.338;12.524;2023-02-28T07:56:55;101616.53;;;1.94;65.50
21863;BME280;11096;51.338;12.524;2023-02-28T07:59:20;101611.34;;;2.00;64.88
21863;BME280;11096;51.338;12.524;2023-02-28T08:01:46;101622.38;;;2.08;64.96
21863;BME280;11096;51.338;12.524;2023-02-28T08:04:11;101622.38;;;2.10;64.46
21863;BME280;11096;51.338;12.524;2023-02-28T08:06:37;101620.66;;;2.10;63.60
21863;BME280;11096;51.338;12.524;2023-02-28T08:09:02;101615.38;;;2.23;63.13
21863;BME280;11096;51.338;12.524;2023-02-28T08:11:27;101623.97;;;2.22;62.49
21863;BME280;11096;51.338;12.524;2023-02-28T08:13:54;101613.50;;;2.39;62.26
21863;BME280;11096;51.338;12.524;2023-02-28T08:16:20;101612.50;;;2.50;61.73
21863;BME280;11096;51.338;12.524;2023-02-28T08:18:51;101614.97;;;2.60;61.15
21863;BME280;11096;51.338;12.524;2023-02-28T08:21:17;101610.53;;;2.72;61.35
21863;BME280;11096;51.338;12.524;2023-02-28T08:23:42;101605.09;;;2.94;61.25
21863;BME280;11096;51.338;12.524;2023-02-28T08:26:08;101611.66;;;3.15;60.73
21863;BME280;11096;51.338;12.524;2023-02-28T08:28:33;101607.34;;;3.17;59.87
21863;BME280;11096;51.338;12.524;2023-02-28T08:30:59;101611.56;;;3.19;59.09
21863;BME280;11096;51.338;12.524;2023-02-28T08:33:25;101603.09;;;3.14;58.36
21863;BME280;11096;51.338;12.524;2023-02-28T08:35:53;101607.97;;;3.33;58.63
21863;BME280;11096;51.338;12.524;2023-02-28T08:38:19;101611.06;;;3.52;58.57
21863;BME280;11096;51.338;12.524;2023-02-28T08:40:44;101607.59;;;3.54;57.71
21863;BME280;11096;51.338;12.524;2023-02-28T08:43:10;101617.94;;;4.02;57.16
21863;BME280;11096;51.338;12.524;2023-02-28T08:45:35;101609.53;;;3.94;56.54
21863;BME280;11096;51.338;12.524;2023-02-28T08:48:00;101613.50;;;4.11;55.96
21863;BME280;11096;51.338;12.524;2023-02-28T08:50:26;101607.66;;;4.02;54.94
21863;BME280;11096;51.338;12.524;2023-02-28T08:52:51;101617.47;;;4.27;54.59
21863;BME280;11096;51.338;12.524;2023-02-28T08:55:17;101610.50;;;4.34;53.79
21863;BME280;11096;51.338;12.524;2023-02-28T08:57:42;101622.31;;;4.42;53.15
21863;BME280;11096;51.338;12.524;2023-02-28T09:00:08;101613.03;;;4.35;52.30
21863;BME280;11096;51.338;12.524;2023-02-28T09:02:33;101618.69;;;4.52;52.70
21863;BME280;11096;51.338;12.524;2023-02-28T09:04:59;101617.56;;;4.66;52.33
21863;BME280;11096;51.338;12.524;2023-02-28T09:07:24;101615.78;;;4.69;51.68
21863;BME280;11096;51.338;12.524;2023-02-28T09:09:50;101611.97;;;4.87;51.40
21863;BME280;11096;51.338;12.524;2023-02-28T09:12:26;101617.41;;;5.50;51.54
21863;BME280;11096;51.338;12.524;2023-02-28T09:14:52;101611.53;;;7.30;49.41
21863;BME280;11096;51.338;12.524;2023-02-28T09:17:18;101605.78;;;12.04;41.84
21863;BME280;11096;51.338;12.524;2023-02-28T09:19:44;101588.38;;;16.47;35.43
21863;BME280;11096;51.338;12.524;2023-02-28T09:22:10;101595.97;;;17.59;31.87
21863;BME280;11096;51.338;12.524;2023-02-28T09:24:37;101596.50;;;19.09;28.92
21863;BME280;11096;51.338;12.524;2023-02-28T09:27:02;101603.56;;;17.40;28.00
21863;BME280;11096;51.338;12.524;2023-02-28T09:29:28;101602.91;;;16.64;27.49
21863;BME280;11096;51.338;12.524;2023-02-28T09:31:53;101597.97;;;14.49;30.00
21863;BME280;11096;51.338;12.524;2023-02-28T09:34:19;101591.41;;;18.19;27.67
21863;BME280;11096;51.338;12.524;2023-02-28T09:36:45;101589.88;;;18.94;25.73
21863;BME280;11096;51.338;12.524;2023-02-28T09:39:10;101596.06;;;18.16;25.69
21863;BME280;11096;51.338;12.524;2023-02-28T09:41:41;101594.50;;;17.91;25.88
21863;BME280;11096;51.338;12.524;2023-02-28T09:46:47;101608.81;;;13.25;27.82
21863;BME280;11096;51.338;12.524;2023-02-28T09:49:19;101592.84;;;18.01;26.32
21863;BME280;11096;51.338;12.524;2023-02-28T09:52:08;101584.94;;;20.06;24.85
21863;BME280;11096;51.338;12.524;2023-02-28T09:54:35;101592.41;;;16.15;25.00
21863;BME280;11096;51.338;12.524;2023-02-28T09:59:59;101600.25;;;13.07;28.61
21863;BME280;11096;51.338;12.524;2023-02-28T10:05:21;101606.50;;;10.64;33.31
21863;BME280;11096;51.338;12.524;2023-02-28T10:13:32;101601.25;;;11.90;33.77
21863;BME280;11096;51.338;12.524;2023-02-28T10:16:08;101581.69;;;17.39;27.87
21863;BME280;11096;51.338;12.524;2023-02-28T10:18:57;101585.56;;;15.21;26.72
21863;BME280;11096;51.338;12.524;2023-02-28T10:21:30;101598.03;;;16.34;27.21
21863;BME280;11096;51.338;12.524;2023-02-28T10:24:26;101577.94;;;19.64;24.00
21863;BME280;11096;51.338;12.524;2023-02-28T10:26:59;101587.00;;;20.23;22.52
21863;BME280;11096;51.338;12.524;2023-02-28T10:29:26;101571.19;;;20.43;22.82
21863;BME280;11096;51.338;12.524;2023-02-28T10:31:51;101573.06;;;19.06;22.14
21863;BME280;11096;51.338;12.524;2023-02-28T10:34:17;101573.69;;;20.44;23.48
21863;BME280;11096;51.338;12.524;2023-02-28T10:36:42;101576.28;;;21.62;21.53
21863;BME280;11096;51.338;12.524;2023-02-28T10:39:34;101569.91;;;21.26;21.70
21863;BME280;11096;51.338;12.524;2023-02-28T10:41:59;101572.84;;;21.13;21.20
21863;BME280;11096;51.338;12.524;2023-02-28T10:44:25;101570.94;;;20.46;21.03
21863;BME280;11096;51.338;12.524;2023-02-28T10:46:50;101567.66;;;21.21;21.06
21863;BME280;11096;51.338;12.524;2023-02-28T10:49:24;101558.28;;;22.41;20.29
21863;BME280;11096;51.338;12.524;2023-02-28T10:51:56;101560.28;;;21.64;20.77
21863;BME280;11096;51.338;12.524;2023-02-28T10:54:29;101560.09;;;23.22;20.50
21863;BME280;11096;51.338;12.524;2023-02-28T10:57:23;101561.88;;;25.34;18.99
21863;BME280;11096;51.338;12.524;2023-02-28T11:00:18;101552.09;;;26.29;17.94
21863;BME280;11096;51.338;12.524;2023-02-28T11:02:44;101559.00;;;20.51;19.98
21863;BME280;11096;51.338;12.524;2023-02-28T11:05:40;101535.31;;;23.65;19.00
21863;BME280;11096;51.338;12.524;2023-02-28T11:08:13;101537.09;;;25.25;18.17
21863;BME280;11096;51.338;12.524;2023-02-28T11:10:44;101543.78;;;22.81;18.54
21863;BME280;11096;51.338;12.524;2023-02-28T11:13:20;101540.97;;;20.66;20.90
21863;BME280;11096;51.338;12.524;2023-02-28T11:15:55;101539.09;;;22.92;19.61
21863;BME280;11096;51.338;12.524;2023-02-28T11:23:52;101534.81;;;21.53;20.60
21863;BME280;11096;51.338;12.524;2023-02-28T11:26:44;101541.50;;;21.38;20.38
21863;BME280;11096;51.338;12.524;2023-02-28T11:29:20;101533.03;;;23.18;19.63
21863;BME280;11096;51.338;12.524;2023-02-28T11:34:36;101527.44;;;24.75;18.85
21863;BME280;11096;51.338;12.524;2023-02-28T11:37:03;101520.66;;;26.25;18.06
21863;BME280;11096;51.338;12.524;2023-02-28T11:39:32;101518.31;;;27.96;16.59
21863;BME280;11096;51.338;12.524;2023-02-28T11:42:01;101514.03;;;28.53;15.84
21863;BME280;11096;51.338;12.524;2023-02-28T11:47:48;101526.44;;;24.84;17.38
21863;BME280;11096;51.338;12.524;2023-02-28T11:58:20;101514.44;;;27.25;17.16
21863;BME280;11096;51.338;12.524;2023-02-28T12:03:31;101510.94;;;27.39;16.21
21863;BME280;11096;51.338;12.524;2023-02-28T12:19:54;101493.81;;;25.95;17.31
21863;BME280;11096;51.338;12.524;2023-02-28T12:27:43;101488.34;;;27.71;15.20
21863;BME280;11096;51.338;12.524;2023-02-28T12:30:16;101491.50;;;26.92;16.25
21863;BME280;11096;51.338;12.524;2023-02-28T12:32:47;101493.44;;;27.51;16.45
21863;BME280;11096;51.338;12.524;2023-02-28T12:35:17;101482.25;;;24.67;16.77
21863;BME280;11096;51.338;12.524;2023-02-28T12:40:44;101483.22;;;24.57;17.50
21863;BME280;11096;51.338;12.524;2023-02-28T12:43:13;101486.06;;;24.97;17.69
21863;BME280;11096;51.338;12.524;2023-02-28T12:48:19;101466.34;;;26.49;17.22
21863;BME280;11096;51.338;12.524;2023-02-28T12:50:47;101464.53;;;25.95;16.83
21863;BME280;11096;51.338;12.524;2023-02-28T12:53:31;101468.16;;;25.63;16.73
21863;BME280;11096;51.338;12.524;2023-02-28T12:56:27;101452.94;;;25.40;17.33
21863;BME280;11096;51.338;12.524;2023-02-28T13:02:09;101449.56;;;22.42;18.98
21863;BME280;11096;51.338;12.524;2023-02-28T13:04:41;101455.44;;;23.76;18.67
21863;BME280;11096;51.338;12.524;2023-02-28T13:10:12;101457.69;;;23.03;19.00
21863;BME280;11096;51.338;12.524;2023-02-28T13:12:48;101451.31;;;25.23;17.75
21863;BME280;11096;51.338;12.524;2023-02-28T13:17:52;101444.94;;;26.11;16.99
21863;BME280;11096;51.338;12.524;2023-02-28T13:20:23;101446.91;;;27.01;16.78
21863;BME280;11096;51.338;12.524;2023-02-28T13:22:52;101444.09;;;25.87;16.48
21863;BME280;11096;51.338;12.524;2023-02-28T13:27:46;101447.38;;;23.60;18.65
21863;BME280;11096;51.338;12.524;2023-02-28T13:35:45;101439.25;;;22.57;19.58
21863;BME280;11096;51.338;12.524;2023-02-28T13:38:33;101436.00;;;23.33;19.13
21863;BME280;11096;51.338;12.524;2023-02-28T13:41:37;101441.63;;;21.22;20.52
21863;BME280;11096;51.338;12.524;2023-02-28T13:44:19;101445.84;;;20.27;21.38
21863;BME280;11096;51.338;12.524;2023-02-28T13:51:48;101445.41;;;17.46;24.01
21863;BME280;11096;51.338;12.524;2023-02-28T13:59:21;101432.44;;;15.39;26.38
21863;BME280;11096;51.338;12.524;2023-02-28T14:02:25;101436.41;;;13.26;29.40
21863;BME280;11096;51.338;12.524;2023-02-28T14:04:56;101436.56;;;14.24;29.37
21863;BME280;11096;51.338;12.524;2023-02-28T14:07:30;101430.44;;;14.10;28.65
21863;BME280;11096;51.338;12.524;2023-02-28T14:10:07;101431.41;;;14.64;28.62
21863;BME280;11096;51.338;12.524;2023-02-28T14:12:56;101430.09;;;14.29;28.84
21863;BME280;11096;51.338;12.524;2023-02-28T14:15:40;101429.34;;;14.81;27.99
21863;BME280;11096;51.338;12.524;2023-02-28T14:18:29;101423.25;;;14.41;28.33
21863;BME280;11096;51.338;12.524;2023-02-28T14:21:08;101429.28;;;14.14;29.58
21863;BME280;11096;51.338;12.524;2023-02-28T14:34:53;101440.44;;;10.01;35.82
21863;BME280;11096;51.338;12.524;2023-02-28T14:37:28;101442.63;;;8.70;37.40
21863;BME280;11096;51.338;12.524;2023-02-28T14:39:54;101444.13;;;8.53;38.41
21863;BME280;11096;51.338;12.524;2023-02-28T14:42:35;101443.41;;;8.26;38.54
21863;BME280;11096;51.338;12.524;2023-02-28T14:45:03;101449.22;;;8.09;39.09
21863;BME280;11096;51.338;12.524;2023-02-28T14:47:33;101449.41;;;8.05;38.64
21863;BME280;11096;51.338;12.524;2023-02-28T14:50:00;101440.78;;;8.04;38.70
21863;BME280;11096;51.338;12.524;2023-02-28T14:52:30;101449.03;;;7.68;39.41
21863;BME280;11096;51.338;12.524;2023-02-28T14:55:05;101443.72;;;7.23;40.43
21863;BME280;11096;51.338;12.524;2023-02-28T14:57:40;101433.47;;;6.95;41.19
21863;BME280;11096;51.338;12.524;2023-02-28T15:02:43;101434.47;;;6.36;42.61
21863;BME280;11096;51.338;12.524;2023-02-28T15:07:34;101441.69;;;6.24;43.29
21863;BME280;11096;51.338;12.524;2023-02-28T15:12:36;101441.63;;;6.28;43.73
21863;BME280;11096;51.338;12.524;2023-02-28T15:15:03;101441.41;;;6.34;43.59
21863;BME280;11096;51.338;12.524;2023-02-28T15:17:28;101438.84;;;6.34;43.71